sensor_id;sensor_type;location;lat;lon;timestamp;P1;durP1;ratioP1;P2;durP2;ratioP2
41921;SDS011;27609;51.002;5.354;2023-08-30T00:01:12;9.25;;;7.13;;
41921;SDS011;27609;51.002;5.354;2023-08-30T00:03:38;11.70;;;7.80;;
41921;SDS011;27609;51.002;5.354;2023-08-30T00:06:04;13.30;;;9.23;;
41921;SDS011;27609;51.002;5.354;2023-08-30T00:08:31;15.57;;;10.65;;
41921;SDS011;27609;51.002;5.354;2023-08-30T00:10:57;15.25;;;9.85;;
41921;SDS011;27609;51.002;5.354;2023-08-30T00:13:24;13.70;;;9.68;;
41921;SDS011;27609;51.002;5.354;2023-08-30T00:15:50;17.45;;;10.80;;
41921;SDS011;27609;51.002;5.354;2023-08-30T00:18:16;11.85;;;9.77;;
41921;SDS011;27609;51.002;5.354;2023-08-30T00:20:44;12.18;;;8.45;;
41921;SDS011;27609;51.002;5.354;2023-08-30T00:23:09;8.18;;;7.03;;
41921;SDS011;27609;51.002;5.354;2023-08-30T00:25:35;11.15;;;6.68;;
41921;SDS011;27609;51.002;5.354;2023-08-30T00:28:01;13.38;;;6.93;;
41921;SDS011;27609;51.002;5.354;2023-08-30T00:30:26;9.60;;;6.88;;
41921;SDS011;27609;51.002;5.354;2023-08-30T00:32:52;7.70;;;6.00;;
41921;SDS011;27609;51.002;5.354;2023-08-30T00:35:18;7.35;;;5.93;;
41921;SDS011;27609;51.002;5.354;2023-08-30T00:37:43;10.23;;;5.47;;
41921;SDS011;27609;51.002;5.354;2023-08-30T00:40:09;11.65;;;6.40;;
41921;SDS011;27609;51.002;5.354;2023-08-30T00:42:35;8.88;;;6.38;;
41921;SDS011;27609;51.002;5.354;2023-08-30T00:45:01;10.93;;;6.85;;
41921;SDS011;27609;51.002;5.354;2023-08-30T00:47:27;8.65;;;6.47;;
41921;SDS011;27609;51.002;5.354;2023-08-30T00:49:53;10.82;;;6.80;;
41921;SDS011;27609;51.002;5.354;2023-08-30T00:52:19;11.43;;;6.38;;
41921;SDS011;27609;51.002;5.354;2023-08-30T00:54:45;10.65;;;6.65;;
41921;SDS011;27609;51.002;5.354;2023-08-30T00:57:10;12.70;;;7.93;;
41921;SDS011;27609;51.002;5.354;2023-08-30T00:59:37;9.60;;;7.57;;
41921;SDS011;27609;51.002;5.354;2023-08-30T01:02:02;10.82;;;7.93;;
41921;SDS011;27609;51.002;5.354;2023-08-30T01:04:29;12.40;;;7.70;;
41921;SDS011;27609;51.002;5.354;2023-08-30T01:06:55;11.82;;;8.00;;
41921;SDS011;27609;51.002;5.354;2023-08-30T01:09:21;9.88;;;7.22;;
41921;SDS011;27609;51.002;5.354;2023-08-30T01:11:54;8.43;;;7.28;;
41921;SDS011;27609;51.002;5.354;2023-08-30T01:14:33;11.57;;;7.28;;
41921;SDS011;27609;51.002;5.354;2023-08-30T01:17:05;13.65;;;7.70;;
41921;SDS011;27609;51.002;5.354;2023-08-30T01:25:00;10.48;;;6.63;;
41921;SDS011;27609;51.002;5.354;2023-08-30T01:27:35;9.15;;;7.20;;
41921;SDS011;27609;51.002;5.354;2023-08-30T01:30:03;10.32;;;7.00;;
41921;SDS011;27609;51.002;5.354;2023-08-30T01:32:32;8.43;;;6.97;;
41921;SDS011;27609;51.002;5.354;2023-08-30T01:35:00;9.23;;;7.00;;
41921;SDS011;27609;51.002;5.354;2023-08-30T01:37:28;11.20;;;7.70;;
41921;SDS011;27609;51.002;5.354;2023-08-30T01:39:55;10.70;;;7.85;;
41921;SDS011;27609;51.002;5.354;2023-08-30T01:42:24;10.90;;;6.97;;
41921;SDS011;27609;51.002;5.354;2023-08-30T01:44:52;8.38;;;7.15;;
41921;SDS011;27609;51.002;5.354;2023-08-30T01:49:52;12.60;;;7.40;;
41921;SDS011;27609;51.002;5.354;2023-08-30T01:52:19;9.40;;;7.07;;
41921;SDS011;27609;51.002;5.354;2023-08-30T01:54:46;13.45;;;8.35;;
41921;SDS011;27609;51.002;5.354;2023-08-30T01:57:12;8.27;;;7.28;;
41921;SDS011;27609;51.002;5.354;2023-08-30T01:59:38;8.38;;;7.45;;
41921;SDS011;27609;51.002;5.354;2023-08-30T02:02:04;10.27;;;7.88;;
41921;SDS011;27609;51.002;5.354;2023-08-30T02:04:30;13.40;;;8.38;;
41921;SDS011;27609;51.002;5.354;2023-08-30T02:09:58;13.80;;;9.25;;
41921;SDS011;27609;51.002;5.354;2023-08-30T02:12:30;12.90;;;9.30;;
41921;SDS011;27609;51.002;5.354;2023-08-30T02:15:08;13.27;;;10.10;;
41921;SDS011;27609;51.002;5.354;2023-08-30T02:17:37;12.57;;;10.07;;
41921;SDS011;27609;51.002;5.354;2023-08-30T02:20:04;11.75;;;9.88;;
41921;SDS011;27609;51.002;5.354;2023-08-30T02:22:32;13.68;;;11.10;;
41921;SDS011;27609;51.002;5.354;2023-08-30T02:24:58;16.80;;;10.95;;
41921;SDS011;27609;51.002;5.354;2023-08-30T02:27:24;15.10;;;11.27;;
41921;SDS011;27609;51.002;5.354;2023-08-30T02:29:50;14.48;;;10.73;;
41921;SDS011;27609;51.002;5.354;2023-08-30T02:32:16;13.40;;;10.57;;
41921;SDS011;27609;51.002;5.354;2023-08-30T02:34:45;13.88;;;11.77;;
41921;SDS011;27609;51.002;5.354;2023-08-30T02:39:41;14.07;;;11.63;;
41921;SDS011;27609;51.002;5.354;2023-08-30T02:42:07;14.70;;;11.68;;
41921;SDS011;27609;51.002;5.354;2023-08-30T02:44:32;13.48;;;11.68;;
41921;SDS011;27609;51.002;5.354;2023-08-30T02:46:58;15.07;;;11.60;;
41921;SDS011;27609;51.002;5.354;2023-08-30T02:49:24;15.45;;;12.57;;
41921;SDS011;27609;51.002;5.354;2023-08-30T02:51:49;15.48;;;12.32;;
41921;SDS011;27609;51.002;5.354;2023-08-30T02:54:15;15.27;;;12.55;;
41921;SDS011;27609;51.002;5.354;2023-08-30T02:56:41;17.17;;;12.50;;
41921;SDS011;27609;51.002;5.354;2023-08-30T02:59:08;16.15;;;12.50;;
41921;SDS011;27609;51.002;5.354;2023-08-30T03:01:34;19.20;;;12.63;;
41921;SDS011;27609;51.002;5.354;2023-08-30T03:04:00;16.35;;;12.55;;
41921;SDS011;27609;51.002;5.354;2023-08-30T03:06:26;19.45;;;12.98;;
41921;SDS011;27609;51.002;5.354;2023-08-30T03:08:53;15.05;;;12.18;;
41921;SDS011;27609;51.002;5.354;2023-08-30T03:11:19;17.63;;;12.13;;
41921;SDS011;27609;51.002;5.354;2023-08-30T03:13:44;17.30;;;13.13;;
41921;SDS011;27609;51.002;5.354;2023-08-30T03:16:14;15.20;;;12.38;;
41921;SDS011;27609;51.002;5.354;2023-08-30T03:18:40;17.13;;;12.20;;
41921;SDS011;27609;51.002;5.354;2023-08-30T03:21:07;15.65;;;12.30;;
41921;SDS011;27609;51.002;5.354;2023-08-30T03:23:33;17.00;;;10.73;;
41921;SDS011;27609;51.002;5.354;2023-08-30T03:26:06;14.95;;;12.32;;
41921;SDS011;27609;51.002;5.354;2023-08-30T03:28:33;16.02;;;12.15;;
41921;SDS011;27609;51.002;5.354;2023-08-30T03:30:59;14.90;;;11.63;;
41921;SDS011;27609;51.002;5.354;2023-08-30T03:33:24;17.38;;;13.70;;
41921;SDS011;27609;51.002;5.354;2023-08-30T03:35:50;15.30;;;12.65;;
41921;SDS011;27609;51.002;5.354;2023-08-30T03:38:16;15.40;;;12.48;;
41921;SDS011;27609;51.002;5.354;2023-08-30T03:40:41;16.35;;;12.43;;
41921;SDS011;27609;51.002;5.354;2023-08-30T03:43:07;15.75;;;12.30;;
41921;SDS011;27609;51.002;5.354;2023-08-30T03:45:36;13.73;;;11.63;;
41921;SDS011;27609;51.002;5.354;2023-08-30T03:48:02;15.30;;;11.25;;
41921;SDS011;27609;51.002;5.354;2023-08-30T03:50:29;13.18;;;10.75;;
41921;SDS011;27609;51.002;5.354;2023-08-30T03:52:54;16.42;;;12.85;;
41921;SDS011;27609;51.002;5.354;2023-08-30T03:55:20;16.20;;;11.93;;
41921;SDS011;27609;51.002;5.354;2023-08-30T03:57:47;22.83;;;12.27;;
41921;SDS011;27609;51.002;5.354;2023-08-30T04:00:13;16.08;;;12.45;;
41921;SDS011;27609;51.002;5.354;2023-08-30T04:02:39;17.52;;;12.70;;
41921;SDS011;27609;51.002;5.354;2023-08-30T04:05:05;19.10;;;12.88;;
41921;SDS011;27609;51.002;5.354;2023-08-30T04:07:34;15.63;;;12.77;;
41921;SDS011;27609;51.002;5.354;2023-08-30T04:10:02;15.60;;;12.63;;
41921;SDS011;27609;51.002;5.354;2023-08-30T04:12:32;15.93;;;12.80;;
41921;SDS011;27609;51.002;5.354;2023-08-30T04:14:58;16.40;;;13.68;;
41921;SDS011;27609;51.002;5.354;2023-08-30T04:17:24;17.08;;;13.43;;
41921;SDS011;27609;51.002;5.354;2023-08-30T04:19:53;16.10;;;13.25;;
41921;SDS011;27609;51.002;5.354;2023-08-30T04:22:19;16.20;;;13.23;;
41921;SDS011;27609;51.002;5.354;2023-08-30T04:24:45;16.88;;;13.98;;
41921;SDS011;27609;51.002;5.354;2023-08-30T04:27:11;21.08;;;14.95;;
41921;SDS011;27609;51.002;5.354;2023-08-30T04:29:37;19.77;;;15.38;;
41921;SDS011;27609;51.002;5.354;2023-08-30T04:32:03;19.95;;;15.05;;
41921;SDS011;27609;51.002;5.354;2023-08-30T04:34:29;20.02;;;16.05;;
41921;SDS011;27609;51.002;5.354;2023-08-30T04:36:56;26.15;;;17.50;;
41921;SDS011;27609;51.002;5.354;2023-08-30T04:39:21;32.15;;;17.98;;
41921;SDS011;27609;51.002;5.354;2023-08-30T04:41:47;30.17;;;18.08;;
41921;SDS011;27609;51.002;5.354;2023-08-30T04:44:13;30.60;;;18.58;;
41921;SDS011;27609;51.002;5.354;2023-08-30T04:46:39;25.33;;;18.90;;
41921;SDS011;27609;51.002;5.354;2023-08-30T04:49:04;26.35;;;19.70;;
41921;SDS011;27609;51.002;5.354;2023-08-30T04:51:30;28.60;;;18.90;;
41921;SDS011;27609;51.002;5.354;2023-08-30T04:53:56;24.20;;;18.95;;
41921;SDS011;27609;51.002;5.354;2023-08-30T04:56:22;26.50;;;19.75;;
41921;SDS011;27609;51.002;5.354;2023-08-30T04:58:48;26.30;;;18.80;;
41921;SDS011;27609;51.002;5.354;2023-08-30T05:01:15;25.85;;;18.45;;
41921;SDS011;27609;51.002;5.354;2023-08-30T05:03:41;28.15;;;17.65;;
41921;SDS011;27609;51.002;5.354;2023-08-30T05:06:07;24.25;;;17.92;;
41921;SDS011;27609;51.002;5.354;2023-08-30T05:08:32;23.25;;;18.40;;
41921;SDS011;27609;51.002;5.354;2023-08-30T05:10:58;23.38;;;18.30;;
41921;SDS011;27609;51.002;5.354;2023-08-30T05:13:24;26.15;;;19.80;;
41921;SDS011;27609;51.002;5.354;2023-08-30T05:15:49;26.58;;;18.83;;
41921;SDS011;27609;51.002;5.354;2023-08-30T05:18:15;24.63;;;18.00;;
41921;SDS011;27609;51.002;5.354;2023-08-30T05:20:40;25.70;;;16.90;;
41921;SDS011;27609;51.002;5.354;2023-08-30T05:23:06;21.00;;;16.80;;
41921;SDS011;27609;51.002;5.354;2023-08-30T05:25:32;19.95;;;16.40;;
41921;SDS011;27609;51.002;5.354;2023-08-30T05:27:58;21.13;;;16.38;;
41921;SDS011;27609;51.002;5.354;2023-08-30T05:30:23;20.88;;;16.27;;
41921;SDS011;27609;51.002;5.354;2023-08-30T05:32:49;20.98;;;16.80;;
41921;SDS011;27609;51.002;5.354;2023-08-30T05:35:15;21.00;;;16.67;;
41921;SDS011;27609;51.002;5.354;2023-08-30T05:37:40;23.25;;;17.27;;
41921;SDS011;27609;51.002;5.354;2023-08-30T05:40:06;26.13;;;16.92;;
41921;SDS011;27609;51.002;5.354;2023-08-30T05:42:32;21.63;;;17.20;;
41921;SDS011;27609;51.002;5.354;2023-08-30T05:44:58;24.52;;;16.65;;
41921;SDS011;27609;51.002;5.354;2023-08-30T05:47:24;21.25;;;17.08;;
41921;SDS011;27609;51.002;5.354;2023-08-30T05:49:50;19.30;;;15.80;;
41921;SDS011;27609;51.002;5.354;2023-08-30T05:52:15;19.83;;;15.38;;
41921;SDS011;27609;51.002;5.354;2023-08-30T05:54:41;18.23;;;15.02;;
41921;SDS011;27609;51.002;5.354;2023-08-30T05:57:07;18.65;;;14.52;;
41921;SDS011;27609;51.002;5.354;2023-08-30T05:59:34;17.85;;;12.68;;
41921;SDS011;27609;51.002;5.354;2023-08-30T06:02:02;19.98;;;12.88;;
41921;SDS011;27609;51.002;5.354;2023-08-30T06:04:29;18.13;;;11.98;;
41921;SDS011;27609;51.002;5.354;2023-08-30T06:06:55;13.45;;;10.43;;
41921;SDS011;27609;51.002;5.354;2023-08-30T06:09:20;18.63;;;11.43;;
41921;SDS011;27609;51.002;5.354;2023-08-30T06:11:46;14.65;;;10.30;;
41921;SDS011;27609;51.002;5.354;2023-08-30T06:14:12;16.65;;;9.68;;
41921;SDS011;27609;51.002;5.354;2023-08-30T06:16:37;14.95;;;8.90;;
41921;SDS011;27609;51.002;5.354;2023-08-30T06:19:03;12.43;;;8.60;;
41921;SDS011;27609;51.002;5.354;2023-08-30T06:21:28;8.43;;;7.28;;
41921;SDS011;27609;51.002;5.354;2023-08-30T06:23:54;11.88;;;8.23;;
41921;SDS011;27609;51.002;5.354;2023-08-30T06:26:20;12.23;;;8.13;;
41921;SDS011;27609;51.002;5.354;2023-08-30T06:28:46;12.82;;;8.27;;
41921;SDS011;27609;51.002;5.354;2023-08-30T06:31:11;11.43;;;8.30;;
41921;SDS011;27609;51.002;5.354;2023-08-30T06:33:37;12.10;;;7.97;;
41921;SDS011;27609;51.002;5.354;2023-08-30T06:36:05;12.00;;;8.43;;
41921;SDS011;27609;51.002;5.354;2023-08-30T06:38:30;8.50;;;7.13;;
41921;SDS011;27609;51.002;5.354;2023-08-30T06:40:59;10.98;;;7.00;;
41921;SDS011;27609;51.002;5.354;2023-08-30T06:43:25;10.32;;;7.20;;
41921;SDS011;27609;51.002;5.354;2023-08-30T06:45:50;10.70;;;5.95;;
41921;SDS011;27609;51.002;5.354;2023-08-30T06:48:16;9.13;;;6.68;;
41921;SDS011;27609;51.002;5.354;2023-08-30T06:50:41;7.78;;;5.90;;
41921;SDS011;27609;51.002;5.354;2023-08-30T06:53:07;7.78;;;4.28;;
41921;SDS011;27609;51.002;5.354;2023-08-30T06:55:34;13.25;;;4.95;;
41921;SDS011;27609;51.002;5.354;2023-08-30T06:58:01;7.18;;;4.80;;
41921;SDS011;27609;51.002;5.354;2023-08-30T07:00:28;7.47;;;5.07;;
41921;SDS011;27609;51.002;5.354;2023-08-30T07:02:53;7.78;;;4.38;;
41921;SDS011;27609;51.002;5.354;2023-08-30T07:05:19;9.10;;;4.63;;
41921;SDS011;27609;51.002;5.354;2023-08-30T07:07:45;5.20;;;4.63;;
41921;SDS011;27609;51.002;5.354;2023-08-30T07:10:10;5.15;;;3.95;;
41921;SDS011;27609;51.002;5.354;2023-08-30T07:12:36;4.22;;;3.42;;
41921;SDS011;27609;51.002;5.354;2023-08-30T07:15:02;6.88;;;4.13;;
41921;SDS011;27609;51.002;5.354;2023-08-30T07:17:28;6.72;;;3.63;;
41921;SDS011;27609;51.002;5.354;2023-08-30T07:19:54;6.85;;;3.58;;
41921;SDS011;27609;51.002;5.354;2023-08-30T07:22:20;5.05;;;3.35;;
41921;SDS011;27609;51.002;5.354;2023-08-30T07:24:45;9.60;;;4.50;;
41921;SDS011;27609;51.002;5.354;2023-08-30T07:27:12;6.18;;;3.42;;
41921;SDS011;27609;51.002;5.354;2023-08-30T07:29:38;6.32;;;3.95;;
41921;SDS011;27609;51.002;5.354;2023-08-30T07:32:05;5.05;;;3.53;;
41921;SDS011;27609;51.002;5.354;2023-08-30T07:34:32;6.03;;;3.63;;
41921;SDS011;27609;51.002;5.354;2023-08-30T07:36:57;4.72;;;3.45;;
41921;SDS011;27609;51.002;5.354;2023-08-30T07:39:23;4.70;;;2.90;;
41921;SDS011;27609;51.002;5.354;2023-08-30T07:41:49;8.20;;;2.97;;
41921;SDS011;27609;51.002;5.354;2023-08-30T07:44:14;5.65;;;3.75;;
41921;SDS011;27609;51.002;5.354;2023-08-30T07:46:41;4.10;;;3.40;;
41921;SDS011;27609;51.002;5.354;2023-08-30T07:49:06;4.97;;;3.60;;
41921;SDS011;27609;51.002;5.354;2023-08-30T07:51:32;6.22;;;3.70;;
41921;SDS011;27609;51.002;5.354;2023-08-30T07:53:58;3.90;;;3.28;;
41921;SDS011;27609;51.002;5.354;2023-08-30T07:56:24;6.75;;;4.07;;
41921;SDS011;27609;51.002;5.354;2023-08-30T07:58:49;4.80;;;3.72;;
41921;SDS011;27609;51.002;5.354;2023-08-30T08:01:15;6.25;;;3.70;;
41921;SDS011;27609;51.002;5.354;2023-08-30T08:03:40;8.10;;;4.32;;
41921;SDS011;27609;51.002;5.354;2023-08-30T08:06:06;5.68;;;4.72;;
41921;SDS011;27609;51.002;5.354;2023-08-30T08:08:32;13.45;;;4.68;;
41921;SDS011;27609;51.002;5.354;2023-08-30T08:11:01;6.10;;;4.55;;
41921;SDS011;27609;51.002;5.354;2023-08-30T08:13:28;7.60;;;5.00;;
41921;SDS011;27609;51.002;5.354;2023-08-30T08:15:57;5.80;;;4.13;;
41921;SDS011;27609;51.002;5.354;2023-08-30T08:18:23;7.03;;;4.68;;
41921;SDS011;27609;51.002;5.354;2023-08-30T08:20:49;6.28;;;5.15;;
41921;SDS011;27609;51.002;5.354;2023-08-30T08:23:15;6.90;;;5.03;;
41921;SDS011;27609;51.002;5.354;2023-08-30T08:25:41;18.20;;;6.07;;
41921;SDS011;27609;51.002;5.354;2023-08-30T08:28:06;7.53;;;4.72;;
41921;SDS011;27609;51.002;5.354;2023-08-30T08:30:32;6.50;;;5.40;;
41921;SDS011;27609;51.002;5.354;2023-08-30T08:32:58;8.25;;;5.95;;
41921;SDS011;27609;51.002;5.354;2023-08-30T08:35:24;9.95;;;6.63;;
41921;SDS011;27609;51.002;5.354;2023-08-30T08:37:50;11.45;;;6.15;;
41921;SDS011;27609;51.002;5.354;2023-08-30T08:40:16;8.93;;;6.50;;
41921;SDS011;27609;51.002;5.354;2023-08-30T08:42:42;13.73;;;7.32;;
41921;SDS011;27609;51.002;5.354;2023-08-30T08:45:09;12.27;;;7.15;;
41921;SDS011;27609;51.002;5.354;2023-08-30T08:47:37;9.45;;;7.53;;
41921;SDS011;27609;51.002;5.354;2023-08-30T08:50:03;12.60;;;7.82;;
41921;SDS011;27609;51.002;5.354;2023-08-30T08:52:29;9.05;;;7.05;;
41921;SDS011;27609;51.002;5.354;2023-08-30T08:54:55;11.32;;;8.02;;
41921;SDS011;27609;51.002;5.354;2023-08-30T08:57:22;12.07;;;8.15;;
41921;SDS011;27609;51.002;5.354;2023-08-30T08:59:48;11.93;;;8.43;;
41921;SDS011;27609;51.002;5.354;2023-08-30T09:02:15;13.68;;;8.43;;
41921;SDS011;27609;51.002;5.354;2023-08-30T09:04:41;11.05;;;7.95;;
41921;SDS011;27609;51.002;5.354;2023-08-30T09:07:06;12.15;;;7.93;;
41921;SDS011;27609;51.002;5.354;2023-08-30T09:09:33;13.65;;;7.28;;
41921;SDS011;27609;51.002;5.354;2023-08-30T09:11:59;12.77;;;8.45;;
41921;SDS011;27609;51.002;5.354;2023-08-30T09:14:25;11.30;;;9.07;;
41921;SDS011;27609;51.002;5.354;2023-08-30T09:17:09;14.32;;;8.10;;
41921;SDS011;27609;51.002;5.354;2023-08-30T09:19:34;12.07;;;8.30;;
41921;SDS011;27609;51.002;5.354;2023-08-30T09:22:00;13.70;;;7.57;;
41921;SDS011;27609;51.002;5.354;2023-08-30T09:24:36;11.45;;;7.78;;
41921;SDS011;27609;51.002;5.354;2023-08-30T09:27:06;9.20;;;7.47;;
41921;SDS011;27609;51.002;5.354;2023-08-30T09:29:32;10.80;;;7.10;;
41921;SDS011;27609;51.002;5.354;2023-08-30T09:31:57;7.20;;;6.43;;
41921;SDS011;27609;51.002;5.354;2023-08-30T09:34:26;10.80;;;6.70;;
41921;SDS011;27609;51.002;5.354;2023-08-30T09:36:52;10.32;;;6.25;;
41921;SDS011;27609;51.002;5.354;2023-08-30T09:39:19;12.60;;;6.85;;
41921;SDS011;27609;51.002;5.354;2023-08-30T09:41:49;10.25;;;6.35;;
41921;SDS011;27609;51.002;5.354;2023-08-30T09:44:16;6.57;;;5.85;;
41921;SDS011;27609;51.002;5.354;2023-08-30T09:49:14;7.55;;;5.80;;
41921;SDS011;27609;51.002;5.354;2023-08-30T09:51:41;6.50;;;5.57;;
41921;SDS011;27609;51.002;5.354;2023-08-30T09:54:28;7.85;;;5.63;;
41921;SDS011;27609;51.002;5.354;2023-08-30T09:56:55;7.32;;;5.75;;
41921;SDS011;27609;51.002;5.354;2023-08-30T09:59:22;6.18;;;5.18;;
41921;SDS011;27609;51.002;5.354;2023-08-30T10:01:48;7.05;;;5.60;;
41921;SDS011;27609;51.002;5.354;2023-08-30T10:04:17;7.28;;;4.82;;
41921;SDS011;27609;51.002;5.354;2023-08-30T10:06:45;7.63;;;5.40;;
41921;SDS011;27609;51.002;5.354;2023-08-30T10:09:11;6.15;;;5.20;;
41921;SDS011;27609;51.002;5.354;2023-08-30T10:11:38;7.60;;;5.43;;
41921;SDS011;27609;51.002;5.354;2023-08-30T10:14:04;8.00;;;5.75;;
41921;SDS011;27609;51.002;5.354;2023-08-30T10:16:49;7.13;;;5.07;;
41921;SDS011;27609;51.002;5.354;2023-08-30T10:19:22;5.47;;;4.30;;
41921;SDS011;27609;51.002;5.354;2023-08-30T10:21:53;6.10;;;4.90;;
41921;SDS011;27609;51.002;5.354;2023-08-30T10:25:14;7.00;;;4.78;;
41921;SDS011;27609;51.002;5.354;2023-08-30T10:27:34;7.07;;;4.30;;
41921;SDS011;27609;51.002;5.354;2023-08-30T10:30:02;5.88;;;3.83;;
41921;SDS011;27609;51.002;5.354;2023-08-30T10:32:31;4.80;;;4.00;;
41921;SDS011;27609;51.002;5.354;2023-08-30T10:35:00;6.95;;;4.20;;
41921;SDS011;27609;51.002;5.354;2023-08-30T10:37:29;4.13;;;3.75;;
41921;SDS011;27609;51.002;5.354;2023-08-30T10:40:01;5.00;;;3.92;;
41921;SDS011;27609;51.002;5.354;2023-08-30T10:42:31;5.85;;;3.83;;
41921;SDS011;27609;51.002;5.354;2023-08-30T10:47:24;6.45;;;3.55;;
41921;SDS011;27609;51.002;5.354;2023-08-30T10:49:53;5.63;;;4.47;;
41921;SDS011;27609;51.002;5.354;2023-08-30T10:52:22;5.43;;;4.20;;
41921;SDS011;27609;51.002;5.354;2023-08-30T10:54:48;4.53;;;4.13;;
41921;SDS011;27609;51.002;5.354;2023-08-30T10:57:19;4.90;;;4.25;;
41921;SDS011;27609;51.002;5.354;2023-08-30T11:02:34;5.10;;;4.13;;
41921;SDS011;27609;51.002;5.354;2023-08-30T11:05:02;4.63;;;4.10;;
41921;SDS011;27609;51.002;5.354;2023-08-30T11:07:30;5.50;;;4.20;;
41921;SDS011;27609;51.002;5.354;2023-08-30T11:09:57;4.25;;;3.83;;
41921;SDS011;27609;51.002;5.354;2023-08-30T11:12:22;4.68;;;4.03;;
41921;SDS011;27609;51.002;5.354;2023-08-30T11:14:49;4.28;;;3.58;;
41921;SDS011;27609;51.002;5.354;2023-08-30T11:17:18;5.35;;;4.47;;
41921;SDS011;27609;51.002;5.354;2023-08-30T11:19:44;7.23;;;3.83;;
41921;SDS011;27609;51.002;5.354;2023-08-30T11:22:10;6.30;;;3.42;;
41921;SDS011;27609;51.002;5.354;2023-08-30T11:24:38;3.80;;;3.22;;
41921;SDS011;27609;51.002;5.354;2023-08-30T11:27:04;7.88;;;3.67;;
41921;SDS011;27609;51.002;5.354;2023-08-30T11:29:30;5.72;;;3.88;;
41921;SDS011;27609;51.002;5.354;2023-08-30T11:31:56;4.93;;;3.72;;
41921;SDS011;27609;51.002;5.354;2023-08-30T11:34:21;4.35;;;3.90;;
41921;SDS011;27609;51.002;5.354;2023-08-30T11:36:47;6.32;;;3.92;;
41921;SDS011;27609;51.002;5.354;2023-08-30T11:39:14;3.83;;;3.53;;
41921;SDS011;27609;51.002;5.354;2023-08-30T11:41:42;4.53;;;3.70;;
41921;SDS011;27609;51.002;5.354;2023-08-30T11:44:08;4.20;;;3.80;;
41921;SDS011;27609;51.002;5.354;2023-08-30T11:46:34;4.05;;;3.65;;
41921;SDS011;27609;51.002;5.354;2023-08-30T11:48:59;6.72;;;3.67;;
41921;SDS011;27609;51.002;5.354;2023-08-30T11:51:25;5.60;;;3.72;;
41921;SDS011;27609;51.002;5.354;2023-08-30T11:53:51;4.93;;;4.07;;
41921;SDS011;27609;51.002;5.354;2023-08-30T11:56:19;4.45;;;4.05;;
41921;SDS011;27609;51.002;5.354;2023-08-30T11:58:45;4.97;;;3.63;;
41921;SDS011;27609;51.002;5.354;2023-08-30T12:01:11;4.75;;;4.32;;
41921;SDS011;27609;51.002;5.354;2023-08-30T12:03:37;4.60;;;3.80;;
41921;SDS011;27609;51.002;5.354;2023-08-30T12:06:08;6.93;;;4.15;;
41921;SDS011;27609;51.002;5.354;2023-08-30T12:08:35;5.50;;;4.53;;
41921;SDS011;27609;51.002;5.354;2023-08-30T12:11:00;7.25;;;4.20;;
41921;SDS011;27609;51.002;5.354;2023-08-30T12:13:27;4.80;;;4.30;;
41921;SDS011;27609;51.002;5.354;2023-08-30T12:15:55;5.90;;;4.75;;
41921;SDS011;27609;51.002;5.354;2023-08-30T12:18:29;5.97;;;4.43;;
41921;SDS011;27609;51.002;5.354;2023-08-30T12:20:58;8.77;;;4.57;;
41921;SDS011;27609;51.002;5.354;2023-08-30T12:23:29;5.28;;;4.47;;
41921;SDS011;27609;51.002;5.354;2023-08-30T12:28:30;7.30;;;4.40;;
41921;SDS011;27609;51.002;5.354;2023-08-30T12:30:56;4.80;;;4.07;;
41921;SDS011;27609;51.002;5.354;2023-08-30T12:33:24;5.35;;;4.63;;
41921;SDS011;27609;51.002;5.354;2023-08-30T12:35:56;7.78;;;4.72;;
41921;SDS011;27609;51.002;5.354;2023-08-30T12:38:23;7.35;;;4.85;;
41921;SDS011;27609;51.002;5.354;2023-08-30T12:40:50;5.68;;;5.07;;
41921;SDS011;27609;51.002;5.354;2023-08-30T12:43:17;5.10;;;4.50;;
41921;SDS011;27609;51.002;5.354;2023-08-30T12:45:43;6.13;;;4.78;;
41921;SDS011;27609;51.002;5.354;2023-08-30T12:48:10;5.53;;;4.90;;
41921;SDS011;27609;51.002;5.354;2023-08-30T12:50:36;6.57;;;4.65;;
41921;SDS011;27609;51.002;5.354;2023-08-30T12:53:06;5.90;;;4.43;;
41921;SDS011;27609;51.002;5.354;2023-08-30T12:55:32;5.72;;;4.50;;
41921;SDS011;27609;51.002;5.354;2023-08-30T12:58:01;7.53;;;4.82;;
41921;SDS011;27609;51.002;5.354;2023-08-30T13:00:27;8.43;;;5.45;;
41921;SDS011;27609;51.002;5.354;2023-08-30T13:02:53;6.88;;;5.25;;
41921;SDS011;27609;51.002;5.354;2023-08-30T13:05:19;5.95;;;5.30;;
41921;SDS011;27609;51.002;5.354;2023-08-30T13:07:46;9.20;;;5.43;;
41921;SDS011;27609;51.002;5.354;2023-08-30T13:10:12;7.28;;;5.07;;
41921;SDS011;27609;51.002;5.354;2023-08-30T13:12:37;7.20;;;5.43;;
41921;SDS011;27609;51.002;5.354;2023-08-30T13:15:04;5.80;;;5.13;;
41921;SDS011;27609;51.002;5.354;2023-08-30T13:17:30;9.80;;;4.82;;
41921;SDS011;27609;51.002;5.354;2023-08-30T13:19:56;11.27;;;4.72;;
41921;SDS011;27609;51.002;5.354;2023-08-30T13:22:24;6.53;;;3.88;;
41921;SDS011;27609;51.002;5.354;2023-08-30T13:24:51;6.10;;;4.25;;
41921;SDS011;27609;51.002;5.354;2023-08-30T13:27:17;5.50;;;3.90;;
41921;SDS011;27609;51.002;5.354;2023-08-30T13:29:43;8.07;;;4.28;;
41921;SDS011;27609;51.002;5.354;2023-08-30T13:32:09;5.00;;;3.60;;
41921;SDS011;27609;51.002;5.354;2023-08-30T13:34:34;9.57;;;3.47;;
41921;SDS011;27609;51.002;5.354;2023-08-30T13:37:00;5.05;;;3.30;;
41921;SDS011;27609;51.002;5.354;2023-08-30T13:39:26;4.72;;;3.38;;
41921;SDS011;27609;51.002;5.354;2023-08-30T13:41:51;7.90;;;3.33;;
41921;SDS011;27609;51.002;5.354;2023-08-30T13:44:17;4.78;;;2.50;;
41921;SDS011;27609;51.002;5.354;2023-08-30T13:46:43;7.57;;;2.70;;
41921;SDS011;27609;51.002;5.354;2023-08-30T13:49:09;7.10;;;2.95;;
41921;SDS011;27609;51.002;5.354;2023-08-30T13:51:35;4.72;;;2.40;;
41921;SDS011;27609;51.002;5.354;2023-08-30T13:54:01;8.38;;;2.65;;
41921;SDS011;27609;51.002;5.354;2023-08-30T13:56:27;7.53;;;2.42;;
41921;SDS011;27609;51.002;5.354;2023-08-30T13:58:53;7.55;;;2.60;;
41921;SDS011;27609;51.002;5.354;2023-08-30T14:01:20;5.35;;;1.85;;
41921;SDS011;27609;51.002;5.354;2023-08-30T14:03:46;5.65;;;2.10;;
41921;SDS011;27609;51.002;5.354;2023-08-30T14:06:12;5.70;;;2.47;;
41921;SDS011;27609;51.002;5.354;2023-08-30T14:08:37;6.00;;;1.90;;
41921;SDS011;27609;51.002;5.354;2023-08-30T14:11:03;5.35;;;2.00;;
41921;SDS011;27609;51.002;5.354;2023-08-30T14:13:29;5.43;;;2.30;;
41921;SDS011;27609;51.002;5.354;2023-08-30T14:15:58;5.07;;;1.63;;
41921;SDS011;27609;51.002;5.354;2023-08-30T14:18:28;4.55;;;1.80;;
41921;SDS011;27609;51.002;5.354;2023-08-30T14:20:56;4.68;;;1.65;;
41921;SDS011;27609;51.002;5.354;2023-08-30T14:23:26;6.78;;;1.95;;
41921;SDS011;27609;51.002;5.354;2023-08-30T14:26:00;9.05;;;2.25;;
41921;SDS011;27609;51.002;5.354;2023-08-30T14:28:38;5.68;;;1.23;;
41921;SDS011;27609;51.002;5.354;2023-08-30T14:31:08;5.60;;;2.25;;
41921;SDS011;27609;51.002;5.354;2023-08-30T14:36:00;4.20;;;1.45;;
41921;SDS011;27609;51.002;5.354;2023-08-30T14:38:29;3.03;;;1.65;;
41921;SDS011;27609;51.002;5.354;2023-08-30T14:41:01;6.95;;;1.40;;
41921;SDS011;27609;51.002;5.354;2023-08-30T14:43:27;4.72;;;1.70;;
41921;SDS011;27609;51.002;5.354;2023-08-30T14:46:03;10.90;;;2.03;;
41921;SDS011;27609;51.002;5.354;2023-08-30T14:48:33;4.93;;;1.63;;
41921;SDS011;27609;51.002;5.354;2023-08-30T14:51:00;6.43;;;1.63;;
41921;SDS011;27609;51.002;5.354;2023-08-30T14:53:26;10.02;;;2.40;;
41921;SDS011;27609;51.002;5.354;2023-08-30T14:55:52;3.88;;;1.30;;
41921;SDS011;27609;51.002;5.354;2023-08-30T14:58:18;4.90;;;1.42;;
41921;SDS011;27609;51.002;5.354;2023-08-30T15:00:46;5.65;;;1.70;;
41921;SDS011;27609;51.002;5.354;2023-08-30T15:03:13;5.80;;;1.85;;